Due to severe server failure at the provider, not all demo sites are operational. Will take some days to rebuilt everything.

Demonstration site - Click on the  for more information

This is an optional block. Switch it on/off in your settings-file: $SITE['bannerTop'] = false; or $SITE['bannerBottom'] = false;

You can display ads, any other important text or photo’s using text / html or PHP code.

You can place one or more at the top and or bottom and it can all be different for content / size .



Visit our other weather sites:

Template documentation
and downloads

And another site



Nearby METAR Reports

   
EBAW - Antwerp
Updated: 21-08-2019 00:50
Clear  
Clear  
   Wind: varies 3.7 km/h
Wind: varies 3.7 km/h
Temperature: 11°C
Dew Point: 10°C
Humidity: 94%
Barometer: 1027 hPa
Visibility: More than 10 km
Cloud details: Clear ft
EBAW 202250Z AUTO VRB02KT CAVOK 11/10 Q1027
EBLG - Liège
Updated: 21-08-2019 00:50
Clear  
Clear  
   Wind: West 1.9 km/h
Wind: West 1.9 km/h
Temperature: 15°C
Dew Point: 9°C
Humidity: 68%
Barometer: 1027 hPa
Visibility: More than 10 km
Cloud details: Clear ft
EBLG 202250Z 27001KT CAVOK 15/09 Q1027 NOSIG
EBCV - Mons/Bergen
Updated: 21-08-2019 00:55
Clear  
Clear  
   Wind: SSW 5.6 km/h
Wind: SSW 5.6 km/h
Temperature: 10°C
Wind Chill: 9°C
Dew Point: 8°C
Humidity: 88%
Barometer: 1028 hPa
Clouds: Clear
Visibility: More than 10 km
Cloud details: Clear ft
EBCV 202255Z AUTO 20003KT 9999 NCD 10/08 Q1028 BLU
EHBK - Maastricht
Updated: 21-08-2019 00:55
Few Clouds  
Few Clouds  
   Wind: WNW 1.9 km/h
Wind: WNW 1.9 km/h
Temperature: 12°C
Dew Point: 10°C
Humidity: 88%
Barometer: 1027 hPa
Clouds: Few Clouds
Visibility: More than 10 km
Cloud details: Few Clouds 4300 ft
EHBK 202255Z AUTO 30001KT 9999 FEW043 12/10 Q1027
ELLX - Luxemburg
Updated: 21-08-2019 00:50
Clear  
Clear  
   Wind: WNW 11.1 km/h
Wind: WNW 11.1 km/h
Temperature: 13°C
Dew Point: 10°C
Humidity: 82%
Barometer: 1028 hPa
Visibility: More than 10 km
Cloud details: Clear ft
ELLX 202250Z 30006KT CAVOK 13/10 Q1028 NOSIG
EBOS - Oostende
Updated: 21-08-2019 00:50
Clear  
Clear  
   Wind: SSW 7.4 km/h
Wind: SSW 7.4 km/h
Temperature: 10°C
Wind Chill: 9°C
Dew Point: 9°C
Humidity: 94%
Barometer: 1027 hPa
Visibility: More than 10 km
Cloud details: Clear ft
EBOS 202250Z 21004KT CAVOK 10/09 Q1027 NOSIG

Script developed by  Saratoga-weather.org Adapted for the template by  Weerstation Leuven

This is an optional block. Switch it on/off in your settings-file: $SITE['bannerTop'] = false; or $SITE['bannerBottom'] = false;

You can display ads, any other important text or photo’s using text / html or PHP code.

You can place one or more at the top and or bottom and it can all be different for content / size .